createdAt,value
2022-10-04T00:01:21.232Z,5.68
2022-10-04T00:04:04.274Z,5.57
2022-10-04T00:06:31.779Z,6.30
2022-10-04T00:09:10.205Z,5.95
2022-10-04T00:11:41.835Z,6.28
2022-10-04T00:14:18.727Z,5.93
2022-10-04T00:16:52.895Z,5.65
2022-10-04T00:19:22.326Z,5.57
2022-10-04T00:21:56.006Z,5.18
2022-10-04T00:24:23.881Z,5.40
2022-10-04T00:26:56.255Z,5.53
2022-10-04T00:30:11.537Z,5.47
2022-10-04T00:33:03.870Z,5.28
2022-10-04T00:35:30.724Z,5.00
2022-10-04T00:38:00.801Z,5.05
2022-10-04T00:40:40.082Z,4.80
2022-10-04T00:43:38.332Z,5.03
2022-10-04T00:46:13.525Z,5.38
2022-10-04T00:48:51.723Z,5.45
2022-10-04T00:51:49.710Z,5.22
2022-10-04T00:54:31.110Z,5.05
2022-10-04T00:57:10.502Z,5.15
2022-10-04T00:59:51.069Z,5.10
2022-10-04T01:02:35.366Z,4.45
2022-10-04T01:05:31.680Z,5.43
2022-10-04T01:08:31.456Z,4.97
2022-10-04T01:11:12.073Z,5.45
2022-10-04T01:13:51.189Z,5.03
2022-10-04T01:16:28.266Z,4.63
2022-10-04T01:18:56.814Z,5.57
2022-10-04T01:21:34.176Z,5.32
2022-10-04T01:24:08.254Z,4.90
2022-10-04T01:26:43.887Z,4.90
2022-10-04T01:29:33.862Z,5.05
2022-10-04T01:32:06.865Z,4.80
2022-10-04T01:34:47.027Z,5.20
2022-10-04T01:37:16.042Z,5.22
2022-10-04T01:39:45.716Z,4.60
2022-10-04T01:42:23.945Z,5.20
2022-10-04T01:45:01.937Z,5.28
2022-10-04T01:47:45.133Z,4.85
2022-10-04T01:50:23.086Z,4.75
2022-10-04T01:53:05.770Z,4.63
2022-10-04T01:55:38.479Z,4.50
2022-10-04T01:58:08.364Z,4.80
2022-10-04T02:00:41.474Z,4.27
2022-10-04T02:03:25.335Z,6.13
2022-10-04T02:06:01.872Z,4.63
2022-10-04T02:08:35.632Z,4.53
2022-10-04T02:11:13.419Z,4.10
2022-10-04T02:13:43.433Z,4.55
2022-10-04T02:16:23.156Z,4.75
2022-10-04T02:18:56.974Z,3.97
2022-10-04T02:21:27.502Z,4.32
2022-10-04T02:23:57.745Z,3.88
2022-10-04T02:26:28.070Z,3.80
2022-10-04T02:28:55.472Z,4.38
2022-10-04T02:31:42.637Z,3.97
2022-10-04T02:34:13.540Z,4.50
2022-10-04T02:39:41.576Z,4.07
2022-10-04T02:42:43.118Z,4.00
2022-10-04T02:45:23.053Z,4.43
2022-10-04T02:48:06.592Z,4.10
2022-10-04T02:50:53.046Z,4.88
2022-10-04T02:54:03.380Z,4.47
2022-10-04T02:56:34.359Z,4.32
2022-10-04T02:59:14.412Z,3.75
2022-10-04T03:02:02.061Z,3.50
2022-10-04T03:04:46.267Z,4.28
2022-10-04T03:07:21.013Z,4.40
2022-10-04T03:09:54.390Z,4.05
2022-10-04T03:12:41.339Z,3.97
2022-10-04T03:15:21.933Z,4.43
2022-10-04T03:17:54.300Z,3.92
2022-10-04T03:23:15.158Z,3.47
2022-10-04T03:25:53.641Z,3.75
2022-10-04T03:28:39.111Z,3.92
2022-10-04T03:31:16.737Z,4.68
2022-10-04T03:33:56.104Z,4.00
2022-10-04T03:36:28.853Z,4.00
2022-10-04T03:39:02.170Z,3.72
2022-10-04T03:41:43.793Z,3.85
2022-10-04T03:44:19.634Z,4.03
2022-10-04T03:47:01.208Z,3.60
2022-10-04T03:49:51.441Z,3.80
2022-10-04T03:52:59.348Z,3.80
2022-10-04T03:55:43.715Z,3.88
2022-10-04T03:58:40.555Z,3.70
2022-10-04T04:01:59.016Z,3.67
2022-10-04T04:05:00.759Z,4.00
2022-10-04T04:14:49.603Z,3.72
2022-10-04T04:18:06.211Z,4.10
2022-10-04T04:20:43.133Z,3.40
2022-10-04T04:23:27.920Z,4.00
2022-10-04T04:26:23.422Z,4.65
2022-10-04T04:29:29.067Z,4.93
2022-10-04T04:32:38.575Z,4.20
2022-10-04T04:45:07.141Z,6.05
2022-10-04T04:47:54.590Z,5.88
2022-10-04T04:57:41.363Z,6.50
2022-10-04T05:00:25.130Z,5.57
2022-10-04T05:02:58.776Z,6.65
2022-10-04T05:05:28.907Z,6.47
2022-10-04T05:08:10.662Z,6.13
2022-10-04T05:11:08.968Z,6.93
2022-10-04T05:13:58.445Z,6.68
2022-10-04T05:16:32.712Z,6.28
2022-10-04T05:19:05.853Z,6.18
2022-10-04T05:21:40.855Z,5.78
2022-10-04T05:24:28.430Z,6.32
2022-10-04T05:27:03.229Z,5.78
2022-10-04T05:29:37.955Z,5.68
2022-10-04T05:36:02.067Z,6.00
2022-10-04T05:38:40.606Z,5.78
2022-10-04T05:41:14.468Z,6.85
2022-10-04T05:43:50.477Z,5.28
2022-10-04T05:46:29.193Z,6.18
2022-10-04T05:49:26.818Z,6.43
2022-10-04T05:52:32.376Z,6.05
2022-10-04T05:55:21.199Z,6.05
2022-10-04T05:58:18.328Z,6.65
2022-10-04T06:01:03.647Z,6.70
2022-10-04T06:04:06.621Z,6.93
2022-10-04T06:06:57.294Z,6.95
2022-10-04T06:09:36.077Z,7.18
2022-10-04T06:12:44.388Z,7.25
2022-10-04T06:15:45.336Z,6.22
2022-10-04T06:18:31.783Z,5.97
2022-10-04T06:21:37.096Z,6.45
2022-10-04T06:24:30.309Z,6.63
2022-10-04T06:27:17.848Z,6.85
2022-10-04T06:29:56.527Z,6.43
2022-10-04T06:32:54.123Z,6.00
2022-10-04T06:35:35.982Z,5.68
2022-10-04T06:38:31.494Z,6.80
2022-10-04T06:41:20.839Z,6.07
2022-10-04T06:44:16.090Z,6.88
2022-10-04T06:47:38.946Z,5.40
2022-10-04T06:50:26.914Z,6.30
2022-10-04T06:53:28.095Z,6.50
2022-10-04T06:56:08.056Z,5.43
2022-10-04T06:58:50.328Z,5.40
2022-10-04T07:01:31.148Z,5.43
2022-10-04T07:04:45.055Z,5.63
2022-10-04T07:07:49.830Z,5.00
2022-10-04T07:10:55.191Z,5.68
2022-10-04T07:13:27.702Z,4.82
2022-10-04T07:16:15.344Z,6.13
2022-10-04T07:19:06.077Z,6.18
2022-10-04T07:21:56.191Z,5.65
2022-10-04T07:24:49.995Z,5.35
2022-10-04T07:27:38.652Z,5.55
2022-10-04T07:30:16.440Z,7.25
2022-10-04T07:32:50.388Z,6.20
2022-10-04T07:35:36.034Z,5.55
2022-10-04T07:38:34.938Z,5.18
2022-10-04T07:41:07.623Z,5.63
2022-10-04T07:44:06.704Z,4.90
2022-10-04T07:46:42.524Z,5.88
2022-10-04T07:49:20.738Z,6.40
2022-10-04T07:51:57.433Z,6.57
2022-10-04T07:54:38.294Z,6.25
2022-10-04T07:58:11.930Z,5.80
2022-10-04T08:01:02.267Z,5.95
2022-10-04T08:03:48.630Z,5.68
2022-10-04T08:06:34.801Z,6.35
2022-10-04T08:09:38.240Z,5.47
2022-10-04T08:12:13.959Z,6.07
2022-10-04T08:14:55.070Z,6.35
2022-10-04T08:17:43.380Z,6.03
2022-10-04T08:20:55.753Z,6.30
2022-10-04T08:23:54.842Z,5.93
2022-10-04T08:26:43.935Z,5.90
2022-10-04T08:29:43.838Z,6.10
2022-10-04T08:32:39.006Z,6.55
2022-10-04T08:35:49.038Z,5.30
2022-10-04T08:38:34.909Z,6.67
2022-10-04T08:41:13.158Z,5.95
2022-10-04T08:44:19.819Z,5.72
2022-10-04T08:47:29.201Z,6.28
2022-10-04T08:50:29.116Z,5.50
2022-10-04T08:53:40.133Z,5.88
2022-10-04T08:56:25.147Z,5.70
2022-10-04T08:59:06.916Z,5.93
2022-10-04T09:02:32.693Z,6.03
2022-10-04T09:05:42.369Z,5.45
2022-10-04T09:08:46.651Z,5.65
2022-10-04T09:11:58.583Z,5.68
2022-10-04T09:15:00.675Z,5.45
2022-10-04T09:18:05.407Z,6.05
2022-10-04T09:21:06.454Z,5.72
2022-10-04T09:23:48.126Z,5.60
2022-10-04T09:26:23.816Z,5.35
2022-10-04T09:29:08.809Z,5.57
2022-10-04T09:32:05.990Z,5.40
2022-10-04T09:35:13.325Z,5.10
2022-10-04T09:37:59.587Z,5.32
2022-10-04T09:41:03.851Z,5.55
2022-10-04T09:43:52.938Z,5.35
2022-10-04T09:47:05.017Z,6.03
2022-10-04T09:50:14.459Z,6.20
2022-10-04T09:53:20.268Z,5.63
2022-10-04T09:56:42.820Z,5.47
2022-10-04T09:59:22.784Z,5.28
2022-10-04T10:02:07.618Z,5.30
2022-10-04T10:05:00.205Z,5.22
2022-10-04T10:07:42.061Z,5.20
2022-10-04T10:11:21.553Z,6.03
2022-10-04T10:14:06.936Z,5.70
2022-10-04T10:17:00.920Z,6.38
2022-10-04T10:19:33.653Z,6.50
2022-10-04T10:22:32.375Z,5.45
2022-10-04T10:25:44.645Z,5.00
2022-10-04T10:28:33.822Z,5.63
2022-10-04T10:31:38.835Z,4.55
2022-10-04T10:34:44.532Z,4.70
2022-10-04T10:37:18.950Z,5.25
2022-10-04T10:40:00.961Z,5.85
2022-10-04T10:42:59.706Z,4.68
2022-10-04T10:46:09.216Z,4.85
2022-10-04T10:48:56.387Z,4.35
2022-10-04T10:51:40.253Z,4.07
2022-10-04T10:54:43.604Z,3.30
2022-10-04T10:57:35.027Z,3.13
2022-10-04T11:00:20.849Z,3.30
2022-10-04T11:03:07.333Z,2.75
2022-10-04T11:06:18.471Z,3.45
2022-10-04T11:09:18.461Z,2.78
2022-10-04T11:12:02.774Z,3.30
2022-10-04T11:15:17.416Z,3.60
2022-10-04T11:18:12.284Z,2.67
2022-10-04T11:21:28.204Z,1.95
2022-10-04T11:24:18.813Z,2.45
2022-10-04T11:27:13.758Z,2.80
2022-10-04T11:30:04.417Z,2.15
2022-10-04T11:32:51.737Z,2.20
2022-10-04T11:39:09.325Z,1.60
2022-10-04T11:41:49.785Z,1.77
2022-10-04T11:47:08.730Z,1.75
2022-10-04T11:50:06.810Z,2.00
2022-10-04T11:53:18.152Z,2.00
2022-10-04T11:56:04.943Z,1.83
2022-10-04T11:58:36.790Z,1.75
2022-10-04T12:01:32.133Z,1.48
2022-10-04T12:04:30.998Z,1.30
2022-10-04T12:07:27.446Z,1.58
2022-10-04T12:10:14.143Z,1.60
2022-10-04T12:12:53.142Z,1.80
2022-10-04T12:15:41.773Z,1.63
2022-10-04T12:18:43.750Z,2.00
2022-10-04T12:25:27.261Z,1.23
2022-10-04T12:28:17.458Z,1.30
2022-10-04T12:31:36.293Z,1.38
2022-10-04T12:34:45.308Z,1.70
2022-10-04T12:37:55.714Z,1.50
2022-10-04T12:40:48.604Z,1.90
2022-10-04T12:43:45.368Z,2.42
2022-10-04T12:46:35.666Z,1.98
2022-10-04T12:49:20.597Z,1.10
2022-10-04T12:52:16.299Z,1.92
2022-10-04T12:55:05.239Z,2.33
2022-10-04T12:57:59.589Z,2.38
2022-10-04T13:00:53.225Z,1.42
2022-10-04T13:03:59.361Z,1.73
2022-10-04T13:06:54.986Z,1.55
2022-10-04T13:09:40.158Z,1.35
2022-10-04T13:12:20.309Z,1.80
2022-10-04T13:14:57.050Z,1.55
2022-10-04T13:17:54.065Z,1.60
2022-10-04T13:21:15.207Z,1.88
2022-10-04T13:24:55.542Z,2.78
2022-10-04T13:27:45.325Z,1.92
2022-10-04T13:33:42.593Z,1.85
2022-10-04T13:36:31.548Z,1.98
2022-10-04T13:39:49.290Z,2.22
2022-10-04T13:42:52.561Z,2.08
2022-10-04T13:45:31.341Z,1.90
2022-10-04T13:52:13.896Z,1.80
2022-10-04T13:55:42.065Z,1.60
2022-10-04T13:58:32.813Z,1.67
2022-10-04T14:01:44.779Z,2.60
2022-10-04T14:04:38.586Z,2.00
2022-10-04T14:11:11.815Z,2.67
2022-10-04T14:17:21.502Z,2.20
2022-10-04T14:20:15.253Z,1.50
2022-10-04T14:23:15.093Z,1.48
2022-10-04T14:26:42.686Z,2.00
2022-10-04T14:29:18.604Z,2.10
2022-10-04T14:32:44.052Z,2.05
2022-10-04T14:36:00.104Z,1.42
2022-10-04T14:39:32.487Z,2.50
2022-10-04T14:42:36.010Z,1.83
2022-10-04T14:46:09.997Z,1.52
2022-10-04T14:49:22.377Z,2.70
2022-10-04T14:53:00.613Z,1.65
2022-10-04T14:56:41.009Z,2.13
2022-10-04T15:00:03.256Z,1.88
2022-10-04T15:03:05.371Z,1.95
2022-10-04T15:06:10.100Z,1.50
2022-10-04T15:09:03.715Z,1.50
2022-10-04T15:12:29.515Z,1.70
2022-10-04T15:15:42.270Z,1.65
2022-10-04T15:18:44.827Z,1.40
2022-10-04T15:21:23.613Z,1.50
2022-10-04T15:24:40.535Z,2.00
2022-10-04T15:27:51.629Z,1.88
2022-10-04T15:37:47.554Z,1.75
2022-10-04T15:40:37.865Z,2.10
2022-10-04T15:46:14.096Z,1.92
2022-10-04T15:52:30.637Z,2.28
2022-10-04T15:55:48.915Z,1.40
2022-10-04T15:59:01.606Z,1.50
2022-10-04T16:02:20.914Z,1.60
2022-10-04T16:05:15.830Z,1.45
2022-10-04T16:08:13.092Z,1.77
2022-10-04T16:11:27.566Z,1.33
2022-10-04T16:14:20.117Z,1.52
2022-10-04T16:17:23.463Z,1.63
2022-10-04T16:20:05.604Z,1.40
2022-10-04T16:22:41.682Z,1.92
2022-10-04T16:25:26.338Z,1.85
2022-10-04T16:28:07.851Z,2.30
2022-10-04T16:31:02.864Z,1.50
2022-10-04T16:33:43.301Z,2.50
2022-10-04T16:39:59.794Z,2.97
2022-10-04T16:42:35.358Z,2.88
2022-10-04T16:45:44.317Z,9.35
2022-10-04T16:48:33.905Z,12.55
2022-10-04T16:51:26.331Z,6.53
2022-10-04T16:54:59.135Z,4.93
2022-10-04T16:57:29.690Z,4.47
2022-10-04T17:00:04.922Z,4.05
2022-10-04T17:03:09.844Z,2.97
2022-10-04T17:05:54.284Z,3.75
2022-10-04T17:08:47.740Z,4.97
2022-10-04T17:11:39.278Z,2.97
2022-10-04T17:15:03.149Z,4.35
2022-10-04T17:17:45.802Z,3.78
2022-10-04T17:20:45.948Z,4.43
2022-10-04T17:23:31.519Z,3.80
2022-10-04T17:26:19.409Z,4.30
2022-10-04T17:29:05.492Z,3.88
2022-10-04T17:31:55.893Z,5.45
2022-10-04T17:34:48.112Z,4.55
2022-10-04T17:37:33.260Z,2.72
2022-10-04T17:40:17.858Z,3.90
2022-10-04T17:43:16.148Z,4.30
2022-10-04T17:46:01.371Z,4.70
2022-10-04T17:48:51.426Z,4.60
2022-10-04T17:51:43.891Z,4.63
2022-10-04T17:54:50.719Z,3.90
2022-10-04T17:57:37.811Z,4.32
2022-10-04T18:00:27.362Z,5.15
2022-10-04T18:03:52.242Z,5.88
2022-10-04T18:07:00.695Z,5.53
2022-10-04T18:09:36.490Z,6.47
2022-10-04T18:12:39.158Z,9.43
2022-10-04T18:15:47.131Z,12.27
2022-10-04T18:18:19.013Z,11.05
2022-10-04T18:20:54.805Z,12.05
2022-10-04T18:23:25.481Z,10.13
2022-10-04T18:26:05.408Z,5.90
2022-10-04T18:29:21.491Z,5.15
2022-10-04T18:31:48.252Z,5.50
2022-10-04T18:34:29.028Z,6.20
2022-10-04T18:39:39.124Z,5.13
2022-10-04T18:42:32.465Z,5.97
2022-10-04T18:45:29.146Z,5.47
2022-10-04T18:48:09.416Z,5.00
2022-10-04T18:50:55.470Z,4.90
2022-10-04T18:53:41.849Z,5.55
2022-10-04T18:56:10.669Z,5.10
2022-10-04T18:59:13.475Z,5.03
2022-10-04T19:02:03.846Z,4.90
2022-10-04T19:04:33.719Z,4.88
2022-10-04T19:07:16.334Z,4.63
2022-10-04T19:10:04.663Z,4.97
2022-10-04T19:12:46.018Z,4.57
2022-10-04T19:15:40.956Z,4.63
2022-10-04T19:18:43.928Z,4.85
2022-10-04T19:21:57.018Z,4.30
2022-10-04T19:24:40.081Z,4.95
2022-10-04T19:27:31.714Z,4.43
2022-10-04T19:30:03.139Z,4.65
2022-10-04T19:32:50.783Z,5.13
2022-10-04T19:35:36.712Z,4.80
2022-10-04T19:38:23.473Z,5.60
2022-10-04T19:41:14.919Z,5.68
2022-10-04T19:44:05.731Z,6.03
2022-10-04T19:46:53.576Z,6.55
2022-10-04T19:49:33.664Z,9.30
2022-10-04T19:52:45.664Z,16.70
2022-10-04T19:55:44.074Z,15.57
2022-10-04T19:59:07.314Z,10.43
2022-10-04T20:01:40.171Z,7.88
2022-10-04T20:04:40.844Z,7.40
2022-10-04T20:07:21.409Z,7.43
2022-10-04T20:09:56.757Z,7.53
2022-10-04T20:12:39.210Z,6.85
2022-10-04T20:15:25.128Z,6.38
2022-10-04T20:17:56.536Z,6.28
2022-10-04T20:20:41.671Z,6.37
2022-10-04T20:23:14.656Z,7.72
2022-10-04T20:25:53.181Z,8.02
2022-10-04T20:28:44.151Z,6.60
2022-10-04T20:31:25.517Z,5.95
2022-10-04T20:33:52.643Z,7.07
2022-10-04T20:36:19.229Z,6.10
2022-10-04T20:39:01.085Z,6.75
2022-10-04T20:41:54.775Z,5.90
2022-10-04T20:44:57.279Z,6.35
2022-10-04T20:47:48.443Z,5.88
2022-10-04T20:50:24.169Z,6.18
2022-10-04T20:52:55.912Z,5.90
2022-10-04T20:55:37.116Z,5.60
2022-10-04T20:58:27.273Z,5.88
2022-10-04T21:01:40.356Z,6.57
2022-10-04T21:04:31.362Z,5.63
2022-10-04T21:07:20.772Z,5.72
2022-10-04T21:09:53.364Z,6.00
2022-10-04T21:12:38.448Z,6.13
2022-10-04T21:15:17.411Z,5.35
2022-10-04T21:18:00.028Z,5.57
2022-10-04T21:20:50.169Z,5.47
2022-10-04T21:23:33.078Z,6.65
2022-10-04T21:26:24.542Z,6.15
2022-10-04T21:28:58.610Z,5.88
2022-10-04T21:31:26.037Z,5.60
2022-10-04T21:33:54.200Z,6.20
2022-10-04T21:36:31.483Z,5.13
2022-10-04T21:38:58.285Z,5.38
2022-10-04T21:41:30.478Z,5.93
2022-10-04T21:44:03.907Z,5.43
2022-10-04T21:46:38.477Z,5.53
2022-10-04T21:49:12.741Z,5.90
2022-10-04T21:51:40.461Z,5.75
2022-10-04T21:54:07.660Z,6.10
2022-10-04T21:56:36.637Z,5.47
2022-10-04T21:59:06.128Z,5.95
2022-10-04T22:01:42.278Z,4.95
2022-10-04T22:04:10.292Z,6.15
2022-10-04T22:06:36.978Z,4.82
2022-10-04T22:09:05.489Z,5.47
2022-10-04T22:11:32.277Z,5.15
2022-10-04T22:14:01.428Z,5.13
2022-10-04T22:16:28.266Z,6.95
2022-10-04T22:18:55.709Z,4.90
2022-10-04T22:21:22.607Z,5.10
2022-10-04T22:23:49.376Z,5.47
2022-10-04T22:26:22.470Z,5.25
2022-10-04T22:28:51.394Z,5.30
2022-10-04T22:31:21.506Z,5.28
2022-10-04T22:33:50.569Z,5.85
2022-10-04T22:36:23.150Z,5.13
2022-10-04T22:39:01.072Z,4.75
2022-10-04T22:41:38.324Z,5.22
2022-10-04T22:44:20.094Z,5.30
2022-10-04T22:46:53.062Z,5.57
2022-10-04T22:49:27.037Z,6.20
2022-10-04T22:51:55.894Z,5.15
2022-10-04T22:54:26.467Z,5.18
2022-10-04T22:56:54.059Z,5.57
2022-10-04T22:59:23.163Z,5.05
2022-10-04T23:01:49.958Z,4.78
2022-10-04T23:04:25.231Z,5.07
2022-10-04T23:06:53.504Z,5.53
2022-10-04T23:09:22.157Z,5.30
2022-10-04T23:11:51.552Z,5.05
2022-10-04T23:14:30.029Z,4.20
2022-10-04T23:16:56.947Z,4.57
2022-10-04T23:19:23.599Z,4.75
2022-10-04T23:21:50.226Z,4.45
2022-10-04T23:24:30.322Z,4.60
2022-10-04T23:26:57.240Z,6.30
2022-10-04T23:29:33.250Z,4.85
2022-10-04T23:32:12.191Z,5.30
2022-10-04T23:34:54.285Z,4.75
2022-10-04T23:37:31.688Z,4.45
2022-10-04T23:40:01.392Z,4.28
2022-10-04T23:42:32.913Z,4.90
2022-10-04T23:45:02.742Z,5.13
2022-10-04T23:47:37.080Z,4.67
2022-10-04T23:50:19.916Z,4.72
2022-10-04T23:52:47.099Z,4.78
2022-10-04T23:55:20.133Z,6.38
2022-10-04T23:57:49.476Z,5.13
